Miniplon — FIDV — position and weather

sailwx.info

Track history (hours):
 
Tides and Currents Weather Stations Pressure Air Temp Water Temp Dewpoint Dewpoint Depression Visibility Wind Speed Wind Dir Waves Ship Positions

Miniplon

Last reported at 2015-May-22 03:20 UTC. Time now 2015-May-23 02:43 UTC.
Position N 47°29' W 003°06'.

Length 22 m.

Type: SAR. MMSI: 228024600.

Date/timePositionNaut miles runAvg speedWind from/ knotsBaromVisibWave heightAir tempDewpointWater temp
2015-May-22 03:20N 47°29' W 003°06'62 2.4
2015-May-21 01:32N 46°42' W 002°09'9 9.4
2015-May-21 00:33N 46°35' W 001°59'9 9.1
2015-May-20 23:34N 46°29' W 001°50'  
2015-May-12 23:33N 46°29' W 001°48'9 8.5
2015-May-12 22:33N 46°33' W 001°59'10 9.9
2015-May-12 21:31N 46°40' W 002°10'77 9.3
2015-May-12 13:16N 47°32' W 003°33'0 0.1
2015-May-12 12:20N 47°32' W 003°33'8 9.0
2015-May-12 11:23N 47°28' W 003°22'63 9.1
2015-May-12 04:24N 46°43' W 002°16'8 9.4
2015-May-12 03:33N 46°38' W 002°07'  
Track history (hours):
 
Tides and Currents Weather Stations Pressure Air Temp Water Temp Dewpoint Dewpoint Depression Visibility Wind Speed Wind Dir Waves Ship Positions

Miniplon

Last reported at 2015-May-22 03:20 UTC. Time now 2015-May-23 02:43 UTC.
Position N 47°29' W 003°06'.

Length 22 m.

Type: SAR. MMSI: 228024600.

Date/timePositionNaut miles runAvg speedWind from/ knotsBaromVisibWave heightAir tempDewpointWater temp
2015-May-22 03:20N 47°29' W 003°06'62 2.4
2015-May-21 01:32N 46°42' W 002°09'9 9.4
2015-May-21 00:33N 46°35' W 001°59'9 9.1
2015-May-20 23:34N 46°29' W 001°50'  
2015-May-12 23:33N 46°29' W 001°48'9 8.5
2015-May-12 22:33N 46°33' W 001°59'10 9.9
2015-May-12 21:31N 46°40' W 002°10'77 9.3
2015-May-12 13:16N 47°32' W 003°33'0 0.1
2015-May-12 12:20N 47°32' W 003°33'8 9.0
2015-May-12 11:23N 47°28' W 003°22'63 9.1
2015-May-12 04:24N 46°43' W 002°16'8 9.4
2015-May-12 03:33N 46°38' W 002°07'  

Dump ship's entire track history